createdAt,value
2023-02-05T00:01:59.564Z,7.30
2023-02-05T00:04:26.853Z,7.20
2023-02-05T00:06:56.581Z,7.20
2023-02-05T00:09:23.877Z,7.20
2023-02-05T00:11:53.666Z,7.20
2023-02-05T00:14:25.024Z,7.10
2023-02-05T00:16:53.154Z,7.10
2023-02-05T00:19:22.673Z,7.10
2023-02-05T00:21:50.156Z,7.10
2023-02-05T00:24:17.398Z,7.10
2023-02-05T00:26:44.735Z,7.10
2023-02-05T00:29:12.045Z,7.10
2023-02-05T00:31:39.378Z,7.10
2023-02-05T00:34:09.025Z,7.00
2023-02-05T00:36:36.324Z,7.10
2023-02-05T00:39:06.684Z,7.00
2023-02-05T00:41:33.926Z,7.00
2023-02-05T00:44:01.215Z,7.00
2023-02-05T00:46:28.517Z,7.00
2023-02-05T00:48:55.821Z,7.00
2023-02-05T00:51:23.118Z,7.00
2023-02-05T00:53:50.513Z,7.00
2023-02-05T00:56:20.324Z,7.00
2023-02-05T00:58:52.426Z,7.00
2023-02-05T01:01:19.755Z,7.00
2023-02-05T01:03:49.176Z,7.00
2023-02-05T01:06:16.551Z,7.00
2023-02-05T01:08:45.998Z,7.00
2023-02-05T01:11:16.066Z,7.00
2023-02-05T01:13:43.350Z,7.00
2023-02-05T01:16:11.468Z,7.00
2023-02-05T01:18:41.009Z,7.00
2023-02-05T01:21:10.829Z,6.90
2023-02-05T01:23:38.122Z,6.90
2023-02-05T01:26:06.451Z,6.90
2023-02-05T01:28:36.192Z,6.90
2023-02-05T01:31:03.646Z,6.90
2023-02-05T01:33:30.958Z,6.90
2023-02-05T01:35:58.284Z,6.90
2023-02-05T01:38:27.891Z,6.80
2023-02-05T01:40:55.193Z,6.80
2023-02-05T01:43:24.678Z,6.80
2023-02-05T01:46:03.053Z,6.80
2023-02-05T01:48:35.772Z,6.80
2023-02-05T01:51:07.090Z,6.80
2023-02-05T01:53:41.264Z,6.70
2023-02-05T01:56:19.249Z,6.70
2023-02-05T01:58:55.890Z,6.70
2023-02-05T02:01:26.433Z,6.70
2023-02-05T02:03:56.909Z,6.70
2023-02-05T02:06:28.585Z,6.70
2023-02-05T02:08:55.870Z,6.70
2023-02-05T02:11:31.549Z,6.70
2023-02-05T02:14:01.119Z,6.80
2023-02-05T02:16:33.366Z,6.70
2023-02-05T02:19:02.361Z,6.70
2023-02-05T02:21:49.301Z,6.70
2023-02-05T02:24:43.157Z,6.60
2023-02-05T02:27:31.316Z,6.60
2023-02-05T02:30:17.055Z,6.60
2023-02-05T02:33:05.390Z,6.60
2023-02-05T02:35:33.016Z,6.60
2023-02-05T02:38:12.247Z,6.60
2023-02-05T02:40:46.720Z,6.60
2023-02-05T02:43:36.154Z,6.50
2023-02-05T02:46:16.797Z,6.50
2023-02-05T02:48:45.921Z,6.50
2023-02-05T02:51:17.460Z,6.50
2023-02-05T02:53:51.769Z,6.50
2023-02-05T02:56:23.147Z,6.50
2023-02-05T02:59:28.794Z,6.40
2023-02-05T03:02:02.805Z,6.40
2023-02-05T03:04:39.022Z,6.40
2023-02-05T03:07:13.675Z,6.40
2023-02-05T03:09:52.501Z,6.40
2023-02-05T03:12:20.189Z,6.40
2023-02-05T03:14:50.651Z,6.40
2023-02-05T03:17:21.478Z,6.40
2023-02-05T03:19:53.298Z,6.30
2023-02-05T03:22:20.560Z,6.40
2023-02-05T03:24:47.793Z,6.30
2023-02-05T03:27:20.070Z,6.30
2023-02-05T03:29:49.710Z,6.30
2023-02-05T03:32:43.812Z,6.30
2023-02-05T03:35:25.228Z,6.30
2023-02-05T03:38:11.294Z,6.30
2023-02-05T03:40:50.639Z,6.30
2023-02-05T03:43:53.805Z,6.30
2023-02-05T03:46:39.556Z,6.30
2023-02-05T03:49:12.823Z,6.30
2023-02-05T03:51:47.743Z,6.20
2023-02-05T03:54:25.453Z,6.20
2023-02-05T03:57:22.500Z,6.20
2023-02-05T03:59:51.069Z,6.20
2023-02-05T04:02:33.743Z,6.20
2023-02-05T04:05:11.920Z,6.10
2023-02-05T04:07:42.223Z,6.10
2023-02-05T04:10:12.253Z,6.10
2023-02-05T04:12:51.577Z,6.10
2023-02-05T04:15:19.026Z,6.10
2023-02-05T04:17:46.496Z,6.10
2023-02-05T04:20:14.150Z,6.10
2023-02-05T04:22:48.319Z,6.00
2023-02-05T04:25:17.855Z,6.10
2023-02-05T04:27:46.525Z,6.00
2023-02-05T04:30:16.828Z,6.00
2023-02-05T04:32:48.630Z,6.00
2023-02-05T04:35:16.200Z,6.00
2023-02-05T04:37:43.546Z,6.00
2023-02-05T04:40:11.685Z,6.00
2023-02-05T04:42:40.477Z,6.00
2023-02-05T04:45:08.791Z,5.90
2023-02-05T04:47:37.243Z,5.90
2023-02-05T04:50:07.912Z,5.90
2023-02-05T04:52:37.885Z,5.90
2023-02-05T04:55:08.829Z,5.80
2023-02-05T04:57:36.560Z,5.80
2023-02-05T05:00:05.333Z,5.80
2023-02-05T05:02:33.046Z,5.80
2023-02-05T05:05:00.544Z,5.80
2023-02-05T05:07:40.588Z,5.70
2023-02-05T05:10:08.666Z,5.70
2023-02-05T05:12:38.791Z,5.70
2023-02-05T05:15:07.407Z,5.70
2023-02-05T05:17:35.669Z,5.70
2023-02-05T05:20:03.862Z,5.70
2023-02-05T05:22:31.554Z,5.70
2023-02-05T05:24:58.940Z,5.60
2023-02-05T05:27:28.672Z,5.60
2023-02-05T05:29:56.439Z,5.60
2023-02-05T05:32:23.894Z,5.60
2023-02-05T05:34:51.367Z,5.60
2023-02-05T05:37:18.765Z,5.60
2023-02-05T05:40:04.831Z,5.60
2023-02-05T05:42:53.164Z,5.60
2023-02-05T05:45:26.695Z,5.50
2023-02-05T05:47:54.778Z,5.50
2023-02-05T05:50:22.371Z,5.50
2023-02-05T05:52:49.739Z,5.50
2023-02-05T05:55:17.175Z,5.50
2023-02-05T05:57:47.371Z,5.50
2023-02-05T06:00:17.842Z,5.50
2023-02-05T06:02:45.377Z,5.50
2023-02-05T06:05:14.741Z,5.40
2023-02-05T06:07:42.361Z,5.40
2023-02-05T06:10:12.905Z,5.40
2023-02-05T06:12:40.405Z,5.40
2023-02-05T06:15:08.355Z,5.40
2023-02-05T06:17:41.903Z,5.40
2023-02-05T06:20:15.660Z,5.40
2023-02-05T06:22:46.329Z,5.40
2023-02-05T06:25:13.890Z,5.40
2023-02-05T06:27:41.350Z,5.40
2023-02-05T06:30:09.494Z,5.40
2023-02-05T06:32:36.898Z,5.40
2023-02-05T06:35:04.548Z,5.30
2023-02-05T06:37:46.872Z,5.30
2023-02-05T06:40:22.787Z,5.30
2023-02-05T06:42:50.246Z,5.30
2023-02-05T06:45:17.610Z,5.30
2023-02-05T06:47:45.449Z,5.30
2023-02-05T06:50:12.981Z,5.30
2023-02-05T06:52:40.565Z,5.30
2023-02-05T06:55:10.937Z,5.30
2023-02-05T06:57:38.381Z,5.30
2023-02-05T07:00:12.152Z,5.30
2023-02-05T07:02:44.032Z,5.30
2023-02-05T07:05:11.679Z,5.30
2023-02-05T07:07:39.836Z,5.30
2023-02-05T07:10:07.709Z,5.30
2023-02-05T07:12:35.241Z,5.30
2023-02-05T07:15:02.654Z,5.30
2023-02-05T07:17:30.071Z,5.30
2023-02-05T07:20:06.629Z,5.30
2023-02-05T07:22:37.696Z,5.30
2023-02-05T07:25:07.956Z,5.30
2023-02-05T07:27:35.944Z,5.30
2023-02-05T07:30:04.121Z,5.40
2023-02-05T07:32:31.687Z,5.40
2023-02-05T07:35:02.590Z,5.40
2023-02-05T07:37:30.160Z,5.40
2023-02-05T07:39:57.528Z,5.50
2023-02-05T07:42:31.684Z,5.50
2023-02-05T07:44:59.158Z,5.60
2023-02-05T07:47:27.161Z,5.60
2023-02-05T07:49:58.452Z,5.70
2023-02-05T07:52:28.338Z,5.80
2023-02-05T07:54:55.969Z,5.80
2023-02-05T07:57:25.745Z,6.00
2023-02-05T07:59:58.699Z,6.00
2023-02-05T08:02:26.322Z,6.20
2023-02-05T08:04:58.240Z,6.30
2023-02-05T08:07:25.770Z,6.40
2023-02-05T08:09:53.331Z,6.50
2023-02-05T08:12:26.465Z,6.60
2023-02-05T08:15:01.769Z,6.70
2023-02-05T08:17:33.562Z,6.90
2023-02-05T08:20:10.149Z,7.00
2023-02-05T08:22:39.568Z,7.10
2023-02-05T08:25:09.702Z,7.30
2023-02-05T08:27:41.107Z,7.30
2023-02-05T08:30:18.107Z,7.40
2023-02-05T08:32:50.394Z,7.50
2023-02-05T08:35:33.099Z,7.60
2023-02-05T08:38:00.940Z,7.70
2023-02-05T08:40:28.380Z,7.80
2023-02-05T08:42:57.767Z,7.90
2023-02-05T08:45:25.697Z,7.90
2023-02-05T08:47:53.784Z,8.00
2023-02-05T08:50:25.174Z,8.10
2023-02-05T08:52:55.759Z,8.10
2023-02-05T08:55:23.354Z,8.10
2023-02-05T08:57:53.181Z,8.10
2023-02-05T09:00:24.679Z,8.20
2023-02-05T09:02:52.205Z,8.20
2023-02-05T09:05:22.021Z,8.20
2023-02-05T09:07:49.646Z,8.20
2023-02-05T09:10:18.698Z,8.20
2023-02-05T09:12:48.898Z,8.30
2023-02-05T09:15:16.346Z,8.30
2023-02-05T09:17:46.492Z,8.40
2023-02-05T09:20:22.786Z,8.40
2023-02-05T09:22:54.275Z,8.40
2023-02-05T09:25:21.613Z,8.50
2023-02-05T09:27:52.545Z,8.50
2023-02-05T09:30:20.399Z,8.50
2023-02-05T09:32:48.978Z,8.50
2023-02-05T09:35:16.403Z,8.60
2023-02-05T09:37:44.232Z,8.60
2023-02-05T09:40:28.351Z,8.70
2023-02-05T09:43:11.760Z,8.80
2023-02-05T09:46:03.483Z,8.90
2023-02-05T09:48:52.543Z,9.00
2023-02-05T09:51:28.858Z,9.00
2023-02-05T09:54:20.992Z,9.10
2023-02-05T09:56:50.792Z,9.10
2023-02-05T10:00:06.098Z,9.20
2023-02-05T10:03:00.371Z,9.30
2023-02-05T10:05:31.046Z,9.30
2023-02-05T10:08:37.707Z,9.40
2023-02-05T10:11:23.524Z,9.40
2023-02-05T10:14:31.606Z,9.40
2023-02-05T10:17:13.503Z,9.50
2023-02-05T10:20:09.703Z,9.50
2023-02-05T10:25:50.216Z,9.60
2023-02-05T10:28:53.380Z,9.60
2023-02-05T10:31:36.124Z,9.70
2023-02-05T10:34:21.128Z,9.80
2023-02-05T10:37:15.450Z,9.80
2023-02-05T10:39:47.404Z,9.80
2023-02-05T10:42:34.173Z,9.80
2023-02-05T10:45:35.706Z,9.80
2023-02-05T10:48:30.035Z,9.70
2023-02-05T10:51:20.198Z,9.80
2023-02-05T10:53:53.169Z,9.80
2023-02-05T10:56:26.875Z,9.80
2023-02-05T10:59:09.313Z,9.80
2023-02-05T11:01:48.267Z,9.90
2023-02-05T11:04:43.039Z,9.90
2023-02-05T11:07:55.793Z,10.00
2023-02-05T11:10:33.961Z,10.00
2023-02-05T11:13:30.178Z,10.10
2023-02-05T11:16:13.693Z,10.10
2023-02-05T11:18:44.981Z,10.20
2023-02-05T11:21:15.442Z,10.30
2023-02-05T11:23:57.894Z,10.30
2023-02-05T11:26:30.788Z,10.30
2023-02-05T11:29:24.121Z,10.40
2023-02-05T11:31:54.781Z,10.40
2023-02-05T11:34:29.302Z,10.50
2023-02-05T11:37:03.887Z,10.50
2023-02-05T11:39:44.836Z,10.60
2023-02-05T11:42:45.655Z,10.60
2023-02-05T11:45:20.163Z,10.60
2023-02-05T11:47:52.493Z,10.60
2023-02-05T11:50:37.301Z,10.70
2023-02-05T11:53:20.626Z,10.70
2023-02-05T11:56:07.686Z,10.70
2023-02-05T11:58:43.422Z,10.70
2023-02-05T12:01:37.134Z,10.70
2023-02-05T12:04:21.236Z,10.70
2023-02-05T12:07:34.355Z,10.70
2023-02-05T12:10:04.522Z,10.70
2023-02-05T12:12:49.445Z,10.70
2023-02-05T12:15:42.095Z,10.70
2023-02-05T12:18:34.491Z,10.70
2023-02-05T12:21:15.375Z,10.70
2023-02-05T12:24:15.638Z,10.80
2023-02-05T12:26:49.063Z,10.80
2023-02-05T12:29:49.439Z,10.90
2023-02-05T12:32:23.019Z,10.90
2023-02-05T12:34:56.180Z,10.90
2023-02-05T12:38:00.526Z,10.90
2023-02-05T12:40:39.805Z,10.90
2023-02-05T12:43:28.804Z,11.00
2023-02-05T12:46:11.391Z,10.90
2023-02-05T12:49:03.228Z,11.00
2023-02-05T12:52:02.410Z,10.90
2023-02-05T12:54:46.004Z,11.00
2023-02-05T13:00:28.658Z,10.90
2023-02-05T13:03:35.664Z,10.90
2023-02-05T13:06:14.878Z,10.90
2023-02-05T13:09:44.205Z,10.90
2023-02-05T13:12:18.739Z,10.80
2023-02-05T13:15:15.095Z,10.70
2023-02-05T13:17:52.724Z,10.70
2023-02-05T13:21:10.525Z,10.60
2023-02-05T13:24:05.016Z,10.60
2023-02-05T13:27:09.663Z,10.50
2023-02-05T13:29:51.675Z,10.50
2023-02-05T13:32:31.654Z,10.40
2023-02-05T13:35:10.552Z,10.40
2023-02-05T13:38:17.423Z,10.30
2023-02-05T13:40:57.085Z,10.20
2023-02-05T13:43:29.886Z,10.20
2023-02-05T13:46:21.258Z,10.20
2023-02-05T13:49:49.209Z,10.10
2023-02-05T13:52:35.776Z,10.10
2023-02-05T13:55:31.108Z,10.10
2023-02-05T13:58:22.348Z,10.00
2023-02-05T14:01:13.002Z,10.00
2023-02-05T14:04:07.145Z,9.90
2023-02-05T14:06:40.023Z,9.90
2023-02-05T14:09:11.218Z,9.90
2023-02-05T14:12:07.867Z,9.80
2023-02-05T14:14:38.804Z,9.80
2023-02-05T14:17:31.732Z,9.80
2023-02-05T14:20:10.651Z,9.70
2023-02-05T14:22:45.416Z,9.60
2023-02-05T14:25:49.197Z,9.60
2023-02-05T14:28:19.339Z,9.60
2023-02-05T14:31:37.446Z,9.60
2023-02-05T14:34:33.958Z,9.50
2023-02-05T14:37:02.224Z,9.50
2023-02-05T14:39:35.651Z,9.50
2023-02-05T14:42:19.458Z,9.40
2023-02-05T14:44:57.300Z,9.40
2023-02-05T14:47:33.113Z,9.40
2023-02-05T14:50:08.245Z,9.40
2023-02-05T14:52:39.377Z,9.30
2023-02-05T14:55:45.678Z,9.30
2023-02-05T14:58:27.061Z,9.20
2023-02-05T15:01:33.425Z,9.30
2023-02-05T15:04:04.958Z,9.20
2023-02-05T15:06:46.705Z,9.20
2023-02-05T15:09:26.956Z,9.20
2023-02-05T15:12:06.092Z,9.10
2023-02-05T15:14:55.541Z,9.10
2023-02-05T15:17:35.748Z,9.00
2023-02-05T15:20:35.610Z,9.00
2023-02-05T15:23:35.510Z,9.00
2023-02-05T15:26:10.577Z,8.90
2023-02-05T15:29:21.166Z,8.90
2023-02-05T15:31:55.861Z,8.80
2023-02-05T15:34:53.103Z,8.80
2023-02-05T15:37:25.729Z,8.70
2023-02-05T15:40:26.209Z,8.70
2023-02-05T15:43:01.599Z,8.60
2023-02-05T15:45:34.880Z,8.60
2023-02-05T15:48:13.934Z,8.60
2023-02-05T15:50:52.246Z,8.50
2023-02-05T15:53:49.312Z,8.50
2023-02-05T15:56:33.004Z,8.40
2023-02-05T15:59:12.860Z,8.40
2023-02-05T16:01:49.351Z,8.40
2023-02-05T16:04:37.971Z,8.40
2023-02-05T16:07:26.894Z,8.30
2023-02-05T16:10:02.803Z,8.30
2023-02-05T16:12:32.060Z,8.30
2023-02-05T16:15:07.121Z,8.20
2023-02-05T16:17:49.312Z,8.20
2023-02-05T16:20:37.301Z,8.10
2023-02-05T16:23:34.033Z,8.10
2023-02-05T16:26:17.012Z,8.10
2023-02-05T16:28:56.176Z,8.00
2023-02-05T16:31:27.325Z,8.00
2023-02-05T16:34:22.658Z,8.00
2023-02-05T16:36:52.513Z,7.90
2023-02-05T16:39:40.476Z,7.90
2023-02-05T16:42:29.916Z,7.90
2023-02-05T16:45:19.841Z,7.80
2023-02-05T16:48:24.451Z,7.80
2023-02-05T16:50:53.570Z,7.70
2023-02-05T16:53:26.365Z,7.70
2023-02-05T16:56:07.085Z,7.70
2023-02-05T16:58:44.185Z,7.60
2023-02-05T17:01:16.742Z,7.60
2023-02-05T17:03:50.051Z,7.60
2023-02-05T17:06:22.089Z,7.60
2023-02-05T17:08:56.147Z,7.60
2023-02-05T17:11:43.073Z,7.50
2023-02-05T17:14:22.876Z,7.50
2023-02-05T17:16:58.174Z,7.50
2023-02-05T17:19:33.282Z,7.50
2023-02-05T17:22:18.291Z,7.40
2023-02-05T17:24:52.205Z,7.40
2023-02-05T17:27:29.204Z,7.40
2023-02-05T17:30:01.346Z,7.40
2023-02-05T17:32:30.198Z,7.30
2023-02-05T17:34:57.648Z,7.30
2023-02-05T17:37:25.201Z,7.30
2023-02-05T17:39:53.804Z,7.30
2023-02-05T17:42:27.960Z,7.30
2023-02-05T17:44:56.213Z,7.30
2023-02-05T17:47:23.733Z,7.30
2023-02-05T17:49:51.178Z,7.20
2023-02-05T17:52:18.776Z,7.20
2023-02-05T17:54:46.566Z,7.20
2023-02-05T17:57:22.733Z,7.20
2023-02-05T17:59:50.435Z,7.20
2023-02-05T18:02:20.303Z,7.10
2023-02-05T18:04:48.046Z,7.10
2023-02-05T18:07:35.766Z,7.10
2023-02-05T18:10:05.497Z,7.10
2023-02-05T18:12:33.311Z,7.10
2023-02-05T18:15:00.998Z,7.10
2023-02-05T18:17:28.876Z,7.00
2023-02-05T18:19:56.587Z,7.00
2023-02-05T18:22:24.450Z,7.00
2023-02-05T18:24:52.167Z,7.00
2023-02-05T18:27:20.293Z,7.00
2023-02-05T18:29:54.062Z,6.90
2023-02-05T18:32:24.454Z,6.90
2023-02-05T18:34:52.041Z,6.90
2023-02-05T18:37:19.850Z,6.90
2023-02-05T18:39:50.841Z,6.90
2023-02-05T18:42:20.711Z,6.80
2023-02-05T18:44:49.175Z,6.80
2023-02-05T18:47:16.566Z,6.80
2023-02-05T18:49:44.040Z,6.80
2023-02-05T18:52:13.897Z,6.80
2023-02-05T18:54:43.838Z,6.70
2023-02-05T18:57:14.460Z,6.70
2023-02-05T18:59:41.885Z,6.70
2023-02-05T19:02:12.726Z,6.70
2023-02-05T19:04:41.600Z,6.70
2023-02-05T19:07:08.974Z,6.70
2023-02-05T19:09:36.336Z,6.70
2023-02-05T19:12:04.049Z,6.70
2023-02-05T19:14:31.521Z,6.60
2023-02-05T19:17:00.101Z,6.60
2023-02-05T19:19:27.685Z,6.60
2023-02-05T19:22:01.899Z,6.60
2023-02-05T19:24:30.031Z,6.60
2023-02-05T19:26:59.537Z,6.60
2023-02-05T19:29:28.171Z,6.60
2023-02-05T19:31:57.541Z,6.50
2023-02-05T19:34:27.903Z,6.50
2023-02-05T19:36:55.438Z,6.50
2023-02-05T19:39:22.932Z,6.50
2023-02-05T19:41:51.928Z,6.40
2023-02-05T19:44:21.540Z,6.40
2023-02-05T19:46:49.006Z,6.40
2023-02-05T19:49:19.185Z,6.40
2023-02-05T19:51:55.169Z,6.40
2023-02-05T19:54:23.066Z,6.40
2023-02-05T19:56:50.917Z,6.40
2023-02-05T19:59:18.370Z,6.40
2023-02-05T20:01:49.901Z,6.30
2023-02-05T20:04:24.807Z,6.30
2023-02-05T20:06:58.285Z,6.30
2023-02-05T20:09:27.158Z,6.30
2023-02-05T20:11:59.621Z,6.20
2023-02-05T20:14:27.263Z,6.20
2023-02-05T20:16:54.674Z,6.30
2023-02-05T20:19:22.320Z,6.20
2023-02-05T20:21:54.847Z,6.20
2023-02-05T20:24:25.475Z,6.20
2023-02-05T20:26:53.278Z,6.20
2023-02-05T20:29:41.634Z,6.20
2023-02-05T20:32:23.069Z,6.10
2023-02-05T20:34:50.833Z,6.10
2023-02-05T20:37:21.386Z,6.10
2023-02-05T20:39:51.027Z,6.10
2023-02-05T20:42:18.558Z,6.10
2023-02-05T20:44:46.152Z,6.10
2023-02-05T20:47:18.580Z,6.10
2023-02-05T20:49:46.108Z,6.10
2023-02-05T20:52:13.616Z,6.00
2023-02-05T20:54:44.025Z,6.00
2023-02-05T20:57:11.936Z,6.00
2023-02-05T20:59:39.387Z,6.00
2023-02-05T21:02:07.409Z,6.00
2023-02-05T21:04:36.477Z,6.00
2023-02-05T21:07:03.892Z,6.00
2023-02-05T21:09:31.266Z,6.00
2023-02-05T21:11:58.615Z,5.90
2023-02-05T21:14:26.240Z,5.90
2023-02-05T21:16:53.651Z,6.00
2023-02-05T21:19:21.187Z,5.90
2023-02-05T21:21:49.914Z,5.90
2023-02-05T21:24:17.700Z,5.90
2023-02-05T21:26:51.732Z,5.90
2023-02-05T21:29:23.012Z,5.90
2023-02-05T21:31:53.912Z,5.90
2023-02-05T21:34:25.154Z,5.90
2023-02-05T21:36:54.738Z,5.90
2023-02-05T21:39:22.678Z,5.90
2023-02-05T21:41:50.932Z,5.90
2023-02-05T21:44:18.425Z,5.90
2023-02-05T21:46:45.885Z,5.90
2023-02-05T21:49:13.381Z,5.80
2023-02-05T21:51:42.489Z,5.80
2023-02-05T21:54:11.425Z,5.80
2023-02-05T21:56:42.005Z,5.80
2023-02-05T21:59:12.476Z,5.80
2023-02-05T22:01:40.045Z,5.70
2023-02-05T22:04:14.902Z,5.70
2023-02-05T22:06:43.237Z,5.70
2023-02-05T22:09:13.486Z,5.70
2023-02-05T22:11:42.335Z,5.70
2023-02-05T22:14:10.376Z,5.70
2023-02-05T22:16:38.412Z,5.70
2023-02-05T22:19:08.941Z,5.70
2023-02-05T22:21:40.515Z,5.70
2023-02-05T22:24:11.231Z,5.60
2023-02-05T22:26:39.603Z,5.60
2023-02-05T22:29:08.982Z,5.60
2023-02-05T22:31:36.868Z,5.60
2023-02-05T22:34:06.903Z,5.60
2023-02-05T22:36:37.850Z,5.60
2023-02-05T22:39:06.259Z,5.50
2023-02-05T22:41:40.038Z,5.60
2023-02-05T22:44:09.817Z,5.50
2023-02-05T22:46:44.806Z,5.50
2023-02-05T22:49:15.395Z,5.50
2023-02-05T22:51:46.204Z,5.50
2023-02-05T22:54:16.815Z,5.40
2023-02-05T22:56:47.197Z,5.40
2023-02-05T22:59:14.879Z,5.40
2023-02-05T23:01:42.474Z,5.40
2023-02-05T23:04:10.597Z,5.40
2023-02-05T23:06:41.132Z,5.40
2023-02-05T23:09:15.934Z,5.40
2023-02-05T23:11:46.506Z,5.30
2023-02-05T23:14:16.057Z,5.30
2023-02-05T23:16:45.637Z,5.30
2023-02-05T23:19:16.860Z,5.30
2023-02-05T23:21:44.760Z,5.30
2023-02-05T23:24:13.305Z,5.30
2023-02-05T23:26:44.362Z,5.20
2023-02-05T23:29:15.677Z,5.20
2023-02-05T23:31:43.784Z,5.30
2023-02-05T23:34:14.192Z,5.20
2023-02-05T23:36:41.797Z,5.20
2023-02-05T23:39:09.194Z,5.20
2023-02-05T23:41:36.880Z,5.20
2023-02-05T23:44:18.743Z,5.10
2023-02-05T23:46:51.573Z,5.10
2023-02-05T23:49:24.010Z,5.10
2023-02-05T23:51:53.346Z,5.10
2023-02-05T23:54:21.917Z,5.10
2023-02-05T23:56:50.069Z,5.00
2023-02-05T23:59:17.682Z,5.00
